Time;durP1;ratioP1;P1;durP2;ratioP2;P2;SDS_P1;SDS_P2;PMS_P1;PMS_P2;Temp;Humidity;BMP_temperature;BMP_pressure;BME280_temperature;BME280_humidity;BME280_pressure;Samples;Min_cycle;Max_cycle;Signal;HPM_P1;HPM_P2
2023/12/03 00:00:50;;;;;;;6.40;1.23;;;-2.10;99.90;;;;;;5036378;28;20983;-78
2023/12/03 00:03:18;;;;;;;0.80;0.70;;;-2.10;99.90;;;;;;5036490;28;20447;-78
2023/12/03 00:05:45;;;;;;;0.70;0.70;;;-2.00;99.90;;;;;;5036095;28;20490;-78
2023/12/03 00:08:12;;;;;;;2.60;1.03;;;-2.00;99.90;;;;;;5036493;28;20386;-78
2023/12/03 00:10:39;;;;;;;4.97;1.47;;;-2.00;99.90;;;;;;5040092;28;20459;-79
2023/12/03 00:13:05;;;;;;;1.33;1.23;;;-2.10;99.90;;;;;;5039895;28;20446;-79
2023/12/03 00:15:32;;;;;;;0.40;0.40;;;-2.10;99.90;;;;;;5039575;28;20451;-79
2023/12/03 00:17:59;;;;;;;8.67;1.47;;;-2.10;99.90;;;;;;5039946;28;20450;-79
2023/12/03 00:20:27;;;;;;;1.53;1.23;;;-2.20;99.90;;;;;;5047423;28;20433;-78
2023/12/03 00:22:54;;;;;;;0.83;0.83;;;-2.20;99.90;;;;;;5043481;28;20409;-78
2023/12/03 00:25:21;;;;;;;1.20;0.83;;;-2.20;99.90;;;;;;5035103;28;20429;-78
2023/12/03 00:27:48;;;;;;;0.73;0.40;;;-2.30;99.90;;;;;;5035429;28;20478;-78
2023/12/03 00:30:15;;;;;;;0.47;0.47;;;-2.30;99.90;;;;;;5035250;28;20429;-78
2023/12/03 00:32:42;;;;;;;1.13;0.97;;;-2.30;99.90;;;;;;5035317;28;20421;-78
2023/12/03 00:35:09;;;;;;;1.20;1.20;;;-2.30;99.90;;;;;;5035301;28;20454;-78
2023/12/03 00:37:37;;;;;;;0.83;0.70;;;-2.30;99.90;;;;;;5035361;28;20460;-78
2023/12/03 00:40:04;;;;;;;0.63;0.50;;;-2.20;99.90;;;;;;5035356;28;20454;-78
2023/12/03 00:42:31;;;;;;;2.03;1.57;;;-2.30;99.90;;;;;;5035769;28;20459;-78
2023/12/03 00:44:57;;;;;;;1.07;0.83;;;-2.30;99.90;;;;;;5035077;28;20454;-78
2023/12/03 00:47:24;;;;;;;3.67;1.60;;;-2.20;99.90;;;;;;5034911;28;20453;-78
2023/12/03 00:49:51;;;;;;;0.50;0.40;;;-2.20;99.90;;;;;;5034964;28;20453;-78
2023/12/03 00:52:17;;;;;;;0.50;0.50;;;-2.20;99.90;;;;;;5035551;28;20439;-78
2023/12/03 00:54:45;;;;;;;0.80;0.80;;;-2.20;99.90;;;;;;5035566;28;20418;-78
2023/12/03 00:57:12;;;;;;;1.70;0.90;;;-2.20;99.90;;;;;;5035672;28;20979;-78
2023/12/03 00:59:38;;;;;;;0.57;0.57;;;-2.20;99.90;;;;;;5035653;28;20447;-78
2023/12/03 01:02:05;;;;;;;1.37;0.90;;;-2.20;99.90;;;;;;5035533;28;20466;-78
2023/12/03 01:04:32;;;;;;;0.83;0.40;;;-2.20;99.90;;;;;;5034722;28;20454;-78
2023/12/03 01:06:59;;;;;;;2.10;0.60;;;-2.20;99.90;;;;;;5035129;28;20860;-78
2023/12/03 01:09:26;;;;;;;0.30;0.30;;;-2.20;99.90;;;;;;5036084;28;20453;-78
2023/12/03 01:11:56;;;;;;;2.10;0.70;;;-2.20;99.90;;;;;;5035326;28;20458;-78
2023/12/03 01:14:23;;;;;;;0.93;0.93;;;-2.20;99.90;;;;;;5035232;28;20447;-78
2023/12/03 01:16:50;;;;;;;1.23;0.40;;;-2.20;99.90;;;;;;5034988;28;20429;-78
2023/12/03 01:19:16;;;;;;;0.50;0.33;;;-2.20;99.90;;;;;;5035279;28;20447;-78
2023/12/03 01:21:43;;;;;;;0.63;0.63;;;-2.20;99.90;;;;;;5035506;28;20447;-78
2023/12/03 01:24:10;;;;;;;0.30;0.30;;;-2.20;99.90;;;;;;5034996;28;20951;-78
2023/12/03 01:26:36;;;;;;;0.70;0.70;;;-2.20;99.90;;;;;;5035265;28;20495;-78
2023/12/03 01:29:05;;;;;;;0.30;0.30;;;-2.20;99.90;;;;;;5035725;28;20447;-78
2023/12/03 01:31:32;;;;;;;0.30;0.30;;;-2.30;99.90;;;;;;5035415;28;20483;-78
2023/12/03 01:33:58;;;;;;;2.37;1.50;;;-2.30;99.90;;;;;;5047147;28;20451;-78
2023/12/03 01:36:25;;;;;;;0.30;0.30;;;-2.30;99.90;;;;;;5054274;28;20438;-78
2023/12/03 01:38:52;;;;;;;0.87;0.83;;;-2.30;99.90;;;;;;5055455;28;20420;-78
2023/12/03 01:41:18;;;;;;;1.07;0.83;;;-2.20;99.90;;;;;;5046761;28;20421;-78
2023/12/03 01:43:49;;;;;;;0.67;0.67;;;-2.30;99.90;;;;;;5036868;28;20401;-78
2023/12/03 01:46:19;;;;;;;0.40;0.40;;;-2.20;99.90;;;;;;5036177;28;20498;-78
2023/12/03 01:48:47;;;;;;;0.63;0.63;;;-2.20;99.90;;;;;;5037858;28;20533;-78
2023/12/03 01:51:14;;;;;;;0.60;0.60;;;-2.20;99.90;;;;;;5035965;28;20442;-78
2023/12/03 01:53:43;;;;;;;0.60;0.60;;;-2.20;99.90;;;;;;5035786;28;20855;-78
2023/12/03 01:56:11;;;;;;;0.73;0.63;;;-2.20;99.90;;;;;;5035823;28;20463;-78
2023/12/03 01:58:38;;;;;;;3.43;0.87;;;-2.20;99.90;;;;;;5035841;28;20450;-78
2023/12/03 02:01:05;;;;;;;0.47;0.47;;;-2.20;99.90;;;;;;5035919;28;20442;-78
2023/12/03 02:03:33;;;;;;;1.23;1.23;;;-2.10;99.90;;;;;;5037018;28;21025;-79
2023/12/03 02:06:05;;;;;;;0.73;0.73;;;-2.10;99.90;;;;;;5038726;28;20457;-79
2023/12/03 02:08:32;;;;;;;1.07;0.97;;;-2.10;99.90;;;;;;5039020;28;20810;-79
2023/12/03 02:10:59;;;;;;;2.40;1.03;;;-2.20;99.90;;;;;;5038821;28;20454;-79
2023/12/03 02:13:27;;;;;;;2.57;0.93;;;-2.10;99.90;;;;;;5038941;28;20447;-79
2023/12/03 02:15:54;;;;;;;0.60;0.60;;;-2.20;99.90;;;;;;5041017;28;20470;-79
2023/12/03 02:18:20;;;;;;;0.73;0.50;;;-2.20;99.90;;;;;;5042486;28;20442;-79
2023/12/03 02:20:48;;;;;;;0.40;0.40;;;-2.20;99.90;;;;;;5041706;28;20446;-79
2023/12/03 02:23:16;;;;;;;1.27;0.53;;;-2.30;99.90;;;;;;5041411;28;20450;-79
2023/12/03 02:25:43;;;;;;;0.30;0.30;;;-2.30;99.90;;;;;;5041614;28;20469;-79
2023/12/03 02:28:10;;;;;;;3.13;1.17;;;-2.30;99.90;;;;;;5041079;28;20486;-79
2023/12/03 02:30:37;;;;;;;1.17;0.60;;;-2.30;99.90;;;;;;5040856;28;20442;-79
2023/12/03 02:33:05;;;;;;;1.37;0.97;;;-2.30;99.90;;;;;;5041206;28;20824;-79
2023/12/03 02:35:31;;;;;;;1.53;0.73;;;-2.20;99.90;;;;;;5045040;28;20447;-79
2023/12/03 02:37:58;;;;;;;0.70;0.70;;;-2.30;99.90;;;;;;5050672;28;20417;-77
2023/12/03 02:40:26;;;;;;;2.60;1.07;;;-2.20;99.90;;;;;;5038556;28;20446;-78
2023/12/03 02:42:53;;;;;;;0.50;0.43;;;-2.30;99.90;;;;;;5038243;28;20443;-78
2023/12/03 02:45:19;;;;;;;0.77;0.73;;;-2.20;99.90;;;;;;5037314;28;20458;-78
2023/12/03 02:47:46;;;;;;;0.87;0.50;;;-2.20;99.90;;;;;;5037046;28;20478;-78
2023/12/03 02:50:13;;;;;;;1.00;1.00;;;-2.20;99.90;;;;;;5037073;28;20935;-78
2023/12/03 02:52:41;;;;;;;0.53;0.53;;;-2.30;99.90;;;;;;5036792;28;21081;-78
2023/12/03 02:55:08;;;;;;;2.57;0.70;;;-2.20;99.90;;;;;;5036886;28;20955;-78
2023/12/03 02:57:36;;;;;;;1.57;1.10;;;-2.20;99.90;;;;;;5037231;28;20485;-78
2023/12/03 03:00:04;;;;;;;1.83;0.87;;;-2.20;99.90;;;;;;5037655;28;20455;-78
2023/12/03 03:02:31;;;;;;;1.83;0.80;;;-2.10;99.90;;;;;;5037482;28;20939;-78
2023/12/03 03:04:57;;;;;;;1.07;0.80;;;-2.10;99.90;;;;;;5037430;28;20783;-78
2023/12/03 03:07:24;;;;;;;0.60;0.60;;;-2.20;99.90;;;;;;5036813;28;20899;-78
2023/12/03 03:09:51;;;;;;;1.47;0.70;;;-2.20;99.90;;;;;;5037481;28;20443;-78
2023/12/03 03:12:17;;;;;;;1.57;1.47;;;-2.20;99.90;;;;;;5037449;28;20414;-78
2023/12/03 03:14:45;;;;;;;2.53;0.73;;;-2.10;99.90;;;;;;5037108;28;20447;-78
2023/12/03 03:17:12;;;;;;;1.70;1.60;;;-2.20;99.90;;;;;;5037392;28;20470;-78
2023/12/03 03:19:42;;;;;;;2.37;0.93;;;-2.20;99.90;;;;;;5037690;28;20447;-78
2023/12/03 03:22:10;;;;;;;0.63;0.63;;;-2.20;99.90;;;;;;5037444;28;20422;-78
2023/12/03 03:24:37;;;;;;;2.63;2.43;;;-2.20;99.90;;;;;;5036880;28;20446;-78
2023/12/03 03:27:04;;;;;;;0.37;0.37;;;-2.20;99.90;;;;;;5036163;28;20489;-78
2023/12/03 03:29:31;;;;;;;0.77;0.77;;;-2.30;99.90;;;;;;5036855;28;20438;-78
2023/12/03 03:31:59;;;;;;;0.60;0.60;;;-2.40;99.90;;;;;;5036582;28;20978;-78
2023/12/03 03:34:25;;;;;;;0.53;0.53;;;-2.30;99.90;;;;;;5037049;28;20790;-78
2023/12/03 03:36:52;;;;;;;1.33;1.00;;;-2.30;99.90;;;;;;5036798;28;20474;-78
2023/12/03 03:39:19;;;;;;;0.70;0.60;;;-2.30;99.90;;;;;;5037046;28;20453;-78
2023/12/03 03:41:46;;;;;;;0.73;0.73;;;-2.30;99.90;;;;;;5037326;28;20457;-78
2023/12/03 03:44:12;;;;;;;2.50;0.70;;;-2.30;99.90;;;;;;5037237;28;20464;-79
2023/12/03 03:46:39;;;;;;;0.63;0.63;;;-2.40;99.90;;;;;;5036775;28;20462;-78
2023/12/03 03:49:07;;;;;;;0.90;0.90;;;-2.40;99.90;;;;;;5036623;28;20486;-78
2023/12/03 03:51:34;;;;;;;3.27;0.90;;;-2.30;99.90;;;;;;5036726;28;20450;-78
2023/12/03 03:54:00;;;;;;;4.77;0.70;;;-2.40;99.90;;;;;;5036797;28;20445;-78
2023/12/03 03:56:27;;;;;;;0.47;0.47;;;-2.40;99.90;;;;;;5037609;28;20933;-79
2023/12/03 03:58:54;;;;;;;1.63;0.80;;;-2.50;99.90;;;;;;5041420;28;20427;-79
2023/12/03 04:01:20;;;;;;;0.63;0.63;;;-2.50;99.90;;;;;;5040764;28;20447;-79
2023/12/03 04:03:47;;;;;;;1.27;0.70;;;-2.50;99.90;;;;;;5041307;28;20447;-79
2023/12/03 04:06:15;;;;;;;0.77;0.77;;;-2.70;99.90;;;;;;5040258;28;20486;-79
2023/12/03 04:08:42;;;;;;;0.80;0.80;;;-2.80;99.90;;;;;;5040534;28;20487;-79
2023/12/03 04:11:09;;;;;;;0.30;0.30;;;-2.90;99.90;;;;;;5041657;28;20447;-79
2023/12/03 04:13:37;;;;;;;1.10;0.80;;;-3.00;99.90;;;;;;5040961;28;20802;-79
2023/12/03 04:16:04;;;;;;;0.40;0.40;;;-3.10;99.90;;;;;;5040352;28;20459;-79
2023/12/03 04:18:31;;;;;;;0.30;0.20;;;-3.20;99.90;;;;;;5040188;28;20421;-79
2023/12/03 04:20:58;;;;;;;1.03;1.03;;;-3.20;99.90;;;;;;5040048;28;20417;-79
2023/12/03 04:23:26;;;;;;;6.80;0.80;;;-3.40;99.90;;;;;;5040224;28;20813;-79
2023/12/03 04:25:52;;;;;;;7.30;1.37;;;-3.40;99.90;;;;;;5040051;28;20459;-79
2023/12/03 04:28:19;;;;;;;1.37;1.03;;;-3.50;99.90;;;;;;5039332;28;20478;-79
2023/12/03 04:30:46;;;;;;;0.50;0.50;;;-3.70;99.90;;;;;;5039007;28;20451;-79
2023/12/03 04:33:12;;;;;;;0.83;0.77;;;-3.70;99.90;;;;;;5039852;28;20880;-79
2023/12/03 04:35:39;;;;;;;0.67;0.67;;;-3.80;99.90;;;;;;5039173;28;20498;-79
2023/12/03 04:38:06;;;;;;;1.40;1.13;;;-3.80;99.90;;;;;;5039429;28;20443;-79
2023/12/03 04:40:34;;;;;;;0.57;0.57;;;-3.80;99.90;;;;;;5038779;28;20524;-79
2023/12/03 04:43:00;;;;;;;1.27;1.17;;;-3.80;99.90;;;;;;5039203;28;20450;-79
2023/12/03 04:45:27;;;;;;;0.57;0.40;;;-3.80;99.90;;;;;;5038218;28;20442;-79
2023/12/03 04:47:54;;;;;;;0.90;0.50;;;-3.70;99.90;;;;;;5038855;28;20461;-79
2023/12/03 04:50:20;;;;;;;1.33;1.23;;;-3.70;99.90;;;;;;5039497;28;20598;-79
2023/12/03 04:52:47;;;;;;;1.83;1.03;;;-3.70;99.90;;;;;;5051695;28;20538;-78
2023/12/03 04:55:14;;;;;;;2.80;0.60;;;-3.70;99.90;;;;;;5034957;28;20500;-78
2023/12/03 04:57:42;;;;;;;0.70;0.70;;;-3.70;99.90;;;;;;5034254;28;20417;-78
2023/12/03 05:00:10;;;;;;;3.87;1.23;;;-3.70;99.90;;;;;;5034478;28;20447;-78
2023/12/03 05:02:37;;;;;;;2.27;0.80;;;-3.80;99.90;;;;;;5034757;28;20413;-78
2023/12/03 05:05:04;;;;;;;1.47;0.63;;;-3.90;99.90;;;;;;5034375;28;20443;-78
2023/12/03 05:07:32;;;;;;;0.40;0.40;;;-4.10;99.90;;;;;;5033901;28;20497;-78
2023/12/03 05:09:58;;;;;;;0.70;0.70;;;-4.10;99.90;;;;;;5034625;28;20433;-78
2023/12/03 05:12:25;;;;;;;0.30;0.30;;;-4.10;99.90;;;;;;5034439;28;20453;-78
2023/12/03 05:14:53;;;;;;;2.60;1.03;;;-4.10;99.90;;;;;;5034456;28;20429;-78
2023/12/03 05:17:20;;;;;;;0.67;0.67;;;-4.10;99.90;;;;;;5034476;28;20474;-78
2023/12/03 05:19:46;;;;;;;0.40;0.30;;;-4.10;99.90;;;;;;5034431;28;20442;-79
2023/12/03 05:22:13;;;;;;;2.20;1.47;;;-4.10;99.90;;;;;;5034554;28;20417;-78
2023/12/03 05:24:40;;;;;;;1.37;0.60;;;-4.20;99.90;;;;;;5034718;28;20454;-78
2023/12/03 05:27:06;;;;;;;5.00;1.17;;;-4.20;99.90;;;;;;5034300;28;20444;-78
2023/12/03 05:29:33;;;;;;;3.37;1.20;;;-4.20;99.90;;;;;;5034285;28;20457;-78
2023/12/03 05:32:01;;;;;;;0.53;0.50;;;-4.20;99.90;;;;;;5034671;28;20428;-79
2023/12/03 05:34:28;;;;;;;1.07;0.93;;;-4.20;99.90;;;;;;5034487;28;20421;-78
2023/12/03 05:36:55;;;;;;;0.37;0.37;;;-4.20;99.90;;;;;;5034410;28;20462;-78
2023/12/03 05:39:22;;;;;;;0.30;0.30;;;-4.20;99.90;;;;;;5034372;28;20492;-78
2023/12/03 05:41:48;;;;;;;0.97;0.97;;;-4.20;99.90;;;;;;5034231;28;20528;-78
2023/12/03 05:44:15;;;;;;;0.40;0.37;;;-4.20;99.90;;;;;;5034143;28;20474;-78
2023/12/03 05:46:42;;;;;;;0.93;0.57;;;-4.20;99.90;;;;;;5034474;28;20445;-79
2023/12/03 05:49:10;;;;;;;0.73;0.70;;;-4.20;99.90;;;;;;5033950;28;20510;-78
2023/12/03 05:51:37;;;;;;;1.77;1.73;;;-4.20;99.90;;;;;;5033876;28;20959;-78
2023/12/03 05:54:04;;;;;;;2.10;0.90;;;-4.20;99.90;;;;;;5034359;28;20451;-78
2023/12/03 05:56:31;;;;;;;0.57;0.57;;;-4.30;99.90;;;;;;5034180;28;20845;-78
2023/12/03 05:58:57;;;;;;;0.40;0.40;;;-4.20;99.90;;;;;;5036243;28;20425;-78
2023/12/03 06:01:25;;;;;;;0.90;0.90;;;-4.20;99.90;;;;;;5039478;28;20442;-79
2023/12/03 06:03:52;;;;;;;0.50;0.50;;;-4.30;99.90;;;;;;5039348;28;20840;-79
2023/12/03 06:06:20;;;;;;;5.90;1.13;;;-4.30;99.90;;;;;;5037970;28;20483;-79
2023/12/03 06:08:47;;;;;;;0.70;0.70;;;-4.20;99.90;;;;;;5038139;28;20493;-79
2023/12/03 06:11:13;;;;;;;0.30;0.30;;;-4.30;99.90;;;;;;5038149;28;20450;-78
2023/12/03 06:13:40;;;;;;;0.30;0.30;;;-4.20;99.90;;;;;;5037868;28;20447;-78
2023/12/03 06:16:08;;;;;;;0.93;0.93;;;-4.30;99.90;;;;;;5036777;28;20474;-78
2023/12/03 06:18:35;;;;;;;0.30;0.30;;;-4.30;99.90;;;;;;5037380;28;20417;-78
2023/12/03 06:21:02;;;;;;;0.93;0.70;;;-4.40;99.90;;;;;;5036901;28;20438;-78
2023/12/03 06:23:30;;;;;;;0.80;0.80;;;-4.40;99.90;;;;;;5037076;28;20451;-78
2023/12/03 06:25:57;;;;;;;0.63;0.63;;;-4.40;99.90;;;;;;5036092;28;20980;-78
2023/12/03 06:28:24;;;;;;;0.73;0.73;;;-4.40;99.90;;;;;;5036477;28;20452;-78
2023/12/03 06:30:50;;;;;;;2.73;0.67;;;-4.40;99.90;;;;;;5036791;28;20439;-78
2023/12/03 06:33:18;;;;;;;0.60;0.50;;;-4.40;99.90;;;;;;5037553;28;20476;-78
2023/12/03 06:35:45;;;;;;;0.30;0.30;;;-4.40;99.90;;;;;;5036605;28;20448;-78
2023/12/03 06:38:11;;;;;;;2.00;0.60;;;-4.40;99.90;;;;;;5036196;28;20854;-78
2023/12/03 06:40:40;;;;;;;0.63;0.63;;;-4.40;99.90;;;;;;5036306;28;20422;-78
2023/12/03 06:43:07;;;;;;;0.57;0.57;;;-4.50;99.90;;;;;;5036532;28;20451;-78
2023/12/03 06:45:34;;;;;;;0.43;0.43;;;-4.50;99.90;;;;;;5036239;28;20417;-78
2023/12/03 06:48:00;;;;;;;1.23;0.97;;;-4.60;99.90;;;;;;5036281;28;20461;-78
2023/12/03 06:50:27;;;;;;;0.90;0.50;;;-4.60;99.90;;;;;;5036140;28;20447;-78
2023/12/03 06:52:54;;;;;;;3.27;2.97;;;-4.70;99.90;;;;;;5035803;28;20451;-78
2023/12/03 06:55:20;;;;;;;0.30;0.30;;;-4.70;99.90;;;;;;5035876;28;20439;-78
2023/12/03 06:57:48;;;;;;;0.60;0.60;;;-4.60;99.90;;;;;;5035935;28;20447;-78
2023/12/03 07:00:16;;;;;;;0.30;0.30;;;-4.60;99.90;;;;;;5035980;28;20428;-78
2023/12/03 07:02:42;;;;;;;2.00;0.97;;;-4.60;99.90;;;;;;5037690;28;21035;-78
2023/12/03 07:05:09;;;;;;;6.47;1.60;;;-4.70;99.90;;;;;;5039109;28;20455;-78
2023/12/03 07:07:36;;;;;;;4.63;1.73;;;-4.80;99.90;;;;;;5039788;28;20474;-78
2023/12/03 07:10:03;;;;;;;1.93;0.70;;;-4.80;99.90;;;;;;5051146;28;20489;-77
2023/12/03 07:12:30;;;;;;;0.60;0.60;;;-4.80;99.90;;;;;;5037276;28;20446;-78
2023/12/03 07:14:58;;;;;;;0.37;0.37;;;-4.80;99.90;;;;;;5037120;28;20410;-78
2023/12/03 07:17:25;;;;;;;1.80;0.83;;;-4.70;99.90;;;;;;5036215;28;20462;-78
2023/12/03 07:19:52;;;;;;;0.40;0.40;;;-4.60;99.90;;;;;;5036317;28;20425;-78
2023/12/03 07:22:18;;;;;;;0.30;0.30;;;-4.70;99.90;;;;;;5036796;28;20493;-78
2023/12/03 07:24:45;;;;;;;0.70;0.70;;;-4.70;99.90;;;;;;5036328;28;20428;-78
2023/12/03 07:27:12;;;;;;;1.77;1.00;;;-4.70;99.90;;;;;;5036039;28;20467;-79
2023/12/03 07:29:38;;;;;;;2.20;0.57;;;-4.70;99.90;;;;;;5036027;28;20987;-78
2023/12/03 07:32:07;;;;;;;0.77;0.77;;;-4.70;99.90;;;;;;5036249;28;20944;-78
2023/12/03 07:34:33;;;;;;;0.73;0.73;;;-4.70;99.90;;;;;;5036121;28;20944;-78
2023/12/03 07:37:00;;;;;;;0.40;0.40;;;-4.60;99.90;;;;;;5036066;28;20463;-78
2023/12/03 07:39:27;;;;;;;0.80;0.80;;;-4.50;99.90;;;;;;5036527;28;20816;-78
2023/12/03 07:41:55;;;;;;;0.40;0.40;;;-4.50;99.90;;;;;;5036354;28;20459;-78
2023/12/03 07:44:22;;;;;;;0.30;0.20;;;-4.50;99.90;;;;;;5036487;28;20433;-78
2023/12/03 07:46:52;;;;;;;0.73;0.73;;;-4.40;99.90;;;;;;5036209;28;20863;-78
2023/12/03 07:49:20;;;;;;;0.90;0.90;;;-4.40;99.90;;;;;;5036430;28;20466;-78
2023/12/03 07:51:47;;;;;;;1.50;1.40;;;-4.40;99.90;;;;;;5036337;28;20425;-78
2023/12/03 07:54:14;;;;;;;0.40;0.40;;;-4.20;99.90;;;;;;5036009;28;20456;-78
2023/12/03 07:56:42;;;;;;;0.53;0.53;;;-4.20;99.90;;;;;;5036259;28;20866;-78
2023/12/03 07:59:09;;;;;;;0.60;0.60;;;-4.20;99.90;;;;;;5039501;28;20450;-79
2023/12/03 08:01:36;;;;;;;3.80;1.00;;;-4.20;99.90;;;;;;5039725;28;20846;-79
2023/12/03 08:04:04;;;;;;;0.30;0.30;;;-4.10;99.90;;;;;;5040467;28;20413;-79
2023/12/03 08:06:32;;;;;;;2.93;0.90;;;-4.10;99.90;;;;;;5039803;28;20888;-79
2023/12/03 08:08:59;;;;;;;2.70;0.83;;;-4.10;99.90;;;;;;5040517;28;21037;-79
2023/12/03 08:11:26;;;;;;;2.00;1.60;;;-4.00;99.90;;;;;;5040990;28;20409;-79
2023/12/03 08:13:53;;;;;;;2.00;1.13;;;-3.90;99.90;;;;;;5040499;28;20753;-79
2023/12/03 08:16:20;;;;;;;0.53;0.53;;;-3.90;99.90;;;;;;5041955;28;20879;-79
2023/12/03 08:18:48;;;;;;;1.47;1.00;;;-3.80;99.90;;;;;;5041569;28;20413;-79
2023/12/03 08:21:14;;;;;;;1.93;1.00;;;-3.70;99.90;;;;;;5042332;28;20401;-79
2023/12/03 08:23:43;;;;;;;1.20;1.20;;;-3.60;99.90;;;;;;5042448;28;21006;-79
2023/12/03 08:26:09;;;;;;;1.03;0.83;;;-3.60;99.90;;;;;;5041714;28;20485;-79
2023/12/03 08:28:36;;;;;;;3.80;1.17;;;-3.60;99.90;;;;;;5041295;28;20487;-79
2023/12/03 08:31:03;;;;;;;2.97;2.40;;;-3.60;99.90;;;;;;5041549;28;20447;-79
2023/12/03 08:33:29;;;;;;;0.73;0.73;;;-3.60;99.90;;;;;;5040581;28;20443;-79
2023/12/03 08:35:57;;;;;;;0.80;0.80;;;-3.50;99.90;;;;;;5041789;28;20446;-79
2023/12/03 08:38:23;;;;;;;2.20;0.83;;;-3.40;99.90;;;;;;5041996;28;20412;-79
2023/12/03 08:40:51;;;;;;;1.57;1.47;;;-3.30;99.90;;;;;;5042109;28;20446;-79
2023/12/03 08:43:18;;;;;;;0.80;0.80;;;-3.20;99.90;;;;;;5041430;28;20450;-79
2023/12/03 08:45:45;;;;;;;0.90;0.90;;;-3.10;99.90;;;;;;5040990;28;20463;-79
2023/12/03 08:48:11;;;;;;;2.20;0.90;;;-3.10;99.90;;;;;;5040838;28;20443;-79
2023/12/03 08:50:38;;;;;;;0.50;0.50;;;-2.90;99.90;;;;;;5041867;28;20487;-79
2023/12/03 08:53:05;;;;;;;0.30;0.30;;;-3.00;99.90;;;;;;5042296;28;20471;-79
2023/12/03 08:55:32;;;;;;;0.30;0.30;;;-2.90;99.90;;;;;;5041340;28;20450;-79
2023/12/03 08:58:02;;;;;;;0.50;0.50;;;-2.80;99.90;;;;;;5041436;28;20421;-79
2023/12/03 09:00:28;;;;;;;0.83;0.83;;;-2.70;99.90;;;;;;5042090;28;20538;-79
2023/12/03 09:02:55;;;;;;;0.47;0.47;;;-2.50;99.90;;;;;;5041515;28;20451;-79
2023/12/03 09:05:22;;;;;;;6.20;1.60;;;-2.40;99.90;;;;;;5042065;28;20442;-79
2023/12/03 09:07:48;;;;;;;2.83;2.63;;;-2.30;99.90;;;;;;5041568;28;20427;-79
2023/12/03 09:10:15;;;;;;;0.70;0.63;;;-2.30;99.90;;;;;;5040965;28;20453;-79
2023/12/03 09:12:42;;;;;;;0.30;0.30;;;-2.20;99.90;;;;;;5040905;28;20443;-79
2023/12/03 09:15:11;;;;;;;1.27;1.17;;;-2.10;99.90;;;;;;5040325;28;20439;-79
2023/12/03 09:17:38;;;;;;;0.40;0.40;;;-2.00;99.90;;;;;;5040375;28;20528;-79
2023/12/03 09:20:06;;;;;;;6.90;2.50;;;-1.90;99.90;;;;;;5040277;28;20447;-79
2023/12/03 09:22:33;;;;;;;4.73;1.67;;;-1.80;99.90;;;;;;5039996;28;20450;-79
2023/12/03 09:25:00;;;;;;;1.33;1.33;;;-1.70;99.90;;;;;;5040253;28;20446;-79
2023/12/03 09:27:33;;;;;;;0.80;0.80;;;-1.60;99.90;;;;;;5040742;28;20463;-79
2023/12/03 09:29:59;;;;;;;1.57;1.47;;;-1.50;99.90;;;;;;5044878;28;20502;-79
2023/12/03 09:32:27;;;;;;;0.77;0.77;;;-1.40;99.90;;;;;;5034408;28;20455;-79
2023/12/03 09:34:54;;;;;;;1.27;0.53;;;-1.10;99.90;;;;;;5035782;28;20443;-79
2023/12/03 09:37:21;;;;;;;1.03;0.77;;;-0.70;99.90;;;;;;5036053;28;20469;-78
2023/12/03 09:39:47;;;;;;;0.40;0.40;;;-0.10;99.90;;;;;;5036986;28;20439;-79
2023/12/03 09:42:18;;;;;;;3.33;0.87;;;0.80;99.90;;;;;;5034599;28;20442;-79
2023/12/03 09:44:49;;;;;;;3.60;1.27;;;1.50;99.90;;;;;;5034964;28;20503;-79
2023/12/03 09:47:17;;;;;;;2.97;1.27;;;2.00;99.90;;;;;;5034587;28;20473;-79
2023/12/03 09:49:48;;;;;;;1.90;1.83;;;2.20;99.90;;;;;;5034524;28;20486;-79
2023/12/03 09:52:18;;;;;;;6.43;2.10;;;2.00;99.90;;;;;;5035030;28;20443;-80
2023/12/03 09:54:46;;;;;;;1.43;0.93;;;1.90;99.90;;;;;;5034886;28;20443;-79
2023/12/03 09:57:16;;;;;;;1.27;1.17;;;1.60;99.90;;;;;;5039293;28;20467;-80
2023/12/03 09:59:46;;;;;;;3.83;1.80;;;1.60;99.90;;;;;;5041923;28;20438;-80
2023/12/03 10:02:14;;;;;;;1.27;0.80;;;1.30;99.90;;;;;;5041834;28;20423;-80
2023/12/03 10:04:41;;;;;;;1.13;1.03;;;1.00;99.90;;;;;;5042386;28;20447;-80
2023/12/03 10:07:10;;;;;;;0.90;0.87;;;0.70;99.90;;;;;;5041350;28;20490;-80
2023/12/03 10:09:39;;;;;;;2.47;2.30;;;0.30;99.90;;;;;;5041803;28;20490;-80
2023/12/03 10:12:10;;;;;;;2.57;1.70;;;-0.10;99.90;;;;;;5041962;28;20447;-80
2023/12/03 10:14:37;;;;;;;1.87;1.60;;;-0.20;99.90;;;;;;5042062;28;20434;-80
2023/12/03 10:17:04;;;;;;;0.83;0.83;;;-0.30;99.90;;;;;;5041138;28;20463;-80
2023/12/03 10:19:31;;;;;;;6.43;1.33;;;-0.30;99.90;;;;;;5041610;28;20450;-80
2023/12/03 10:21:59;;;;;;;1.43;1.33;;;-0.30;99.90;;;;;;5040833;28;20447;-80
2023/12/03 10:24:27;;;;;;;1.20;0.87;;;-0.30;99.90;;;;;;5041160;28;20442;-80
2023/12/03 10:26:55;;;;;;;0.90;0.90;;;-0.40;99.90;;;;;;5040656;28;20471;-80
2023/12/03 10:29:23;;;;;;;2.13;1.13;;;-0.50;99.90;;;;;;5040535;28;20478;-80
2023/12/03 10:31:51;;;;;;;3.80;2.00;;;-0.40;99.90;;;;;;5040259;28;20447;-80
2023/12/03 10:34:19;;;;;;;6.33;2.00;;;-0.40;99.90;;;;;;5040552;28;20541;-80
2023/12/03 10:36:47;;;;;;;0.47;0.47;;;-0.40;99.90;;;;;;5042905;28;20477;-80
2023/12/03 10:39:17;;;;;;;2.30;1.47;;;-0.40;99.90;;;;;;5043710;28;20450;-80
2023/12/03 10:41:46;;;;;;;2.50;1.37;;;-0.40;99.90;;;;;;5043610;28;20533;-79
2023/12/03 10:44:17;;;;;;;3.63;1.00;;;-0.50;99.90;;;;;;5042944;28;20450;-80
2023/12/03 10:46:44;;;;;;;9.00;1.60;;;-0.40;99.90;;;;;;5043417;28;20491;-80
2023/12/03 10:49:12;;;;;;;2.30;1.53;;;-0.40;99.90;;;;;;5040470;28;20449;-79
2023/12/03 10:51:42;;;;;;;1.03;0.80;;;-0.40;99.90;;;;;;5040642;28;20442;-79
2023/12/03 10:54:09;;;;;;;0.90;0.90;;;-0.30;99.90;;;;;;5041280;28;20434;-79
2023/12/03 10:56:35;;;;;;;5.30;2.70;;;-0.30;99.90;;;;;;5041310;28;20474;-79
2023/12/03 10:59:08;;;;;;;0.83;0.73;;;-0.40;99.90;;;;;;5041010;28;20445;-79
2023/12/03 11:01:39;;;;;;;3.93;1.70;;;-0.50;99.90;;;;;;5040159;28;20454;-79
2023/12/03 11:04:12;;;;;;;1.50;0.90;;;-0.40;99.90;;;;;;5040113;28;20492;-79
2023/12/03 11:06:41;;;;;;;2.27;1.13;;;-0.50;99.90;;;;;;5039614;28;20478;-79
2023/12/03 11:09:08;;;;;;;1.70;1.70;;;-0.60;99.90;;;;;;5039645;28;20443;-79
2023/12/03 11:11:37;;;;;;;2.60;1.00;;;-0.60;99.90;;;;;;5040138;28;20447;-79
2023/12/03 11:14:05;;;;;;;1.70;1.00;;;-0.50;99.90;;;;;;5039952;28;20971;-78
2023/12/03 11:16:39;;;;;;;1.23;0.90;;;-0.40;99.90;;;;;;5040344;28;20469;-79
2023/12/03 11:19:10;;;;;;;1.70;1.07;;;-0.40;99.90;;;;;;5040014;28;20903;-79
2023/12/03 11:21:46;;;;;;;6.90;3.30;;;-0.30;99.90;;;;;;5038259;28;20916;-79
2023/12/03 11:24:37;;;;;;;5.70;1.07;;;-0.30;99.90;;;;;;5039515;28;20411;-79
2023/12/03 11:27:05;;;;;;;2.53;1.33;;;-0.30;99.90;;;;;;5039356;28;20463;-79
2023/12/03 11:29:49;;;;;;;0.80;0.80;;;-0.40;99.90;;;;;;5038996;28;20482;-79
2023/12/03 11:32:16;;;;;;;1.27;1.27;;;-0.50;99.90;;;;;;5041490;28;20435;-79
2023/12/03 11:34:43;;;;;;;1.13;0.50;;;-0.60;99.90;;;;;;5043100;28;20451;-79
2023/12/03 11:37:10;;;;;;;0.83;0.50;;;-0.70;99.90;;;;;;5042691;28;20481;-79
2023/12/03 11:39:42;;;;;;;1.43;0.70;;;-0.70;99.90;;;;;;5042582;28;20497;-79
2023/12/03 11:42:12;;;;;;;1.43;1.33;;;-0.70;99.90;;;;;;5058709;28;20411;-77
2023/12/03 11:44:39;;;;;;;3.40;0.67;;;-0.50;99.90;;;;;;5039683;28;20473;-78
2023/12/03 11:47:08;;;;;;;1.40;0.60;;;-0.70;99.90;;;;;;5037027;28;20478;-78
2023/12/03 11:49:36;;;;;;;0.40;0.40;;;-0.80;99.90;;;;;;5037052;28;20494;-78
2023/12/03 11:52:04;;;;;;;1.23;1.03;;;-0.90;99.90;;;;;;5040227;28;20443;-78
2023/12/03 11:54:37;;;;;;;4.03;1.00;;;-0.90;99.90;;;;;;5038617;28;20478;-79
2023/12/03 11:57:12;;;;;;;1.63;1.50;;;-0.90;99.90;;;;;;5038473;28;20512;-79
2023/12/03 11:59:38;;;;;;;0.90;0.90;;;-0.90;99.90;;;;;;5037517;28;20438;-79
2023/12/03 12:02:07;;;;;;;3.73;1.30;;;-1.00;99.90;;;;;;5038203;28;20490;-79
2023/12/03 12:04:33;;;;;;;0.63;0.63;;;-1.10;99.90;;;;;;5037716;28;20797;-79
2023/12/03 12:07:12;;;;;;;1.73;1.63;;;-1.30;99.90;;;;;;5037154;28;20481;-79
2023/12/03 12:09:39;;;;;;;1.73;1.43;;;-1.20;99.90;;;;;;5037341;28;20927;-80
2023/12/03 12:12:06;;;;;;;1.13;0.97;;;-1.30;99.90;;;;;;5038841;28;20447;-80
2023/12/03 12:14:33;;;;;;;5.17;1.20;;;-1.30;99.90;;;;;;5038039;28;20454;-80
2023/12/03 12:17:00;;;;;;;1.30;0.77;;;-1.30;99.90;;;;;;5037801;28;20482;-80
2023/12/03 12:19:28;;;;;;;1.03;0.60;;;-1.30;99.90;;;;;;5038104;28;20451;-80
2023/12/03 12:21:56;;;;;;;4.77;0.90;;;-1.30;99.90;;;;;;5039756;28;20497;-80
2023/12/03 12:24:22;;;;;;;2.30;1.23;;;-1.30;99.90;;;;;;5040724;28;20435;-81
2023/12/03 12:26:50;;;;;;;0.63;0.63;;;-1.40;99.90;;;;;;5041282;28;20459;-79
2023/12/03 12:29:17;;;;;;;0.83;0.83;;;-1.30;99.90;;;;;;5041418;28;20955;-79
2023/12/03 12:31:44;;;;;;;12.17;1.43;;;-1.30;99.90;;;;;;5039228;28;20929;-79
2023/12/03 12:34:11;;;;;;;1.43;1.13;;;-1.20;99.90;;;;;;5037231;28;20429;-79
2023/12/03 12:36:43;;;;;;;4.27;1.33;;;-1.20;99.90;;;;;;5037113;28;21030;-79
2023/12/03 12:39:24;;;;;;;0.50;0.40;;;-1.30;99.90;;;;;;5037213;28;20443;-78
2023/12/03 12:41:51;;;;;;;0.77;0.77;;;-1.40;99.90;;;;;;5037284;28;20456;-78
2023/12/03 12:44:19;;;;;;;1.23;0.90;;;-1.30;99.90;;;;;;5036882;28;20447;-78
2023/12/03 12:46:53;;;;;;;5.00;1.03;;;-1.40;99.90;;;;;;5036865;28;21003;-78
2023/12/03 12:49:19;;;;;;;2.90;1.40;;;-1.40;99.90;;;;;;5036784;28;20472;-78